Terminal Aerodrome Forecast
Issued by NWS New Orleans/Baton Rouge, LA

Home | Current Version | Previous Version | Text Only | Print | Product List | Glossary On
Versions: 1 2 3 4 5 6 7 8 9 10 11 12 13
628
FTUS44 KLIX 220520
TAFBTR
TAF
KBTR 220520Z 2206/2306 00000KT P6SM SKC
     FM221300 00000KT P6SM VCTS FEW040CB SCT100
     FM221500 00000KT P6SM SCT040 PROB30 2215/2219 4SM TSRA BKN040CB
     FM221900 VRB03KT P6SM BKN100 PROB30 2219/2223 4SM TSRA OVC040CB
     FM230500 VRB03KT P6SM SCT200=

USA.gov is the U.S. government's official web portal to all federal, state and local government web resources and services.